EYPA/PLQ METAR and TAF weather

Enter ICAO airport designator
Station Type Date Time Source
EYPA METAR 2024/02/26 17:50 UTC NOAA

EYPA 261750Z VRB02KT 7000 OVC005 06/05 Q1013


Station Type Date Time Source
EYPA Decoded METAR 2024/02/26 17:50 UTC NOAA

Palanga Intl., Lithuania (EYPA) 55-55-12N 021-03E
Feb 26, 2024 - 12:50 PM EST / 2024.02.26 1750 UTC
Wind: Variable at 2 MPH (2 KT):0
Visibility: 4 mile(s):0
Sky conditions: overcast
Temperature: 42 F (6 C)
Dew Point: 41 F (5 C)
Relative Humidity: 93%
Pressure (altimeter): 29.91 in. Hg (1013 hPa)
ob: EYPA 261750Z VRB02KT 7000 OVC005 06/05 Q1013
cycle: 18

Station Type Date Time Source
EYPA TAF 2024/02/26 18:03 UTC NOAA